Time;durP1;ratioP1;P1;durP2;ratioP2;P2;SDS_P1;SDS_P2;PMS_P1;PMS_P2;Temp;Humidity;BMP_temperature;BMP_pressure;BME280_temperature;BME280_humidity;BME280_pressure;Samples;Min_cycle;Max_cycle;Signal;HPM_P1;HPM_P2
2022/12/28 00:01:17;;;;;;;10.88;5.03;;;;;;;-2.31;100.00;96337.13;4952755;28;20047;-76
2022/12/28 00:03:44;;;;;;;11.63;4.72;;;;;;;-2.36;100.00;96331.66;4951487;28;20050;-76
2022/12/28 00:06:10;;;;;;;11.55;4.47;;;;;;;-2.24;100.00;96336.44;4949991;28;20046;-76
2022/12/28 00:08:36;;;;;;;10.15;4.82;;;;;;;-2.25;100.00;96332.28;4945678;29;20039;-76
2022/12/28 00:11:04;;;;;;;13.52;4.78;;;;;;;-2.24;100.00;96331.28;4954138;28;20041;-76
2022/12/28 00:13:31;;;;;;;10.73;4.90;;;;;;;-2.27;100.00;96338.38;4956284;28;20116;-76
2022/12/28 00:15:57;;;;;;;9.77;4.22;;;;;;;-2.35;100.00;96324.72;4944339;28;20044;-76
2022/12/28 00:18:23;;;;;;;10.73;4.88;;;;;;;-2.27;100.00;96328.06;4946082;28;20478;-76
2022/12/28 00:21:07;;;;;;;10.77;4.10;;;;;;;-2.20;100.00;96327.41;4944023;29;20051;-76
2022/12/28 00:23:33;;;;;;;10.83;4.13;;;;;;;-2.39;100.00;96328.63;4948211;29;20527;-76
2022/12/28 00:26:07;;;;;;;9.18;4.63;;;;;;;-2.44;100.00;96331.69;4947725;28;20036;-76
2022/12/28 00:28:32;;;;;;;;;;;;;;;-2.37;100.00;96331.81;4943136;29;20095;-76
2022/12/28 00:30:58;;;;;;;7.55;3.55;;;;;;;-2.50;100.00;96332.34;4951809;29;19930;-76
2022/12/28 00:33:23;;;;;;;12.07;4.40;;;;;;;-2.42;100.00;96327.16;4950159;28;20051;-76
2022/12/28 00:35:53;;;;;;;7.72;3.83;;;;;;;-2.40;100.00;96335.53;4949267;28;20119;-76
2022/12/28 00:38:19;;;;;;;8.85;4.28;;;;;;;-2.47;100.00;96332.00;4959707;28;20155;-76
2022/12/28 00:40:44;;;;;;;6.20;3.42;;;;;;;-2.43;100.00;96328.13;4951556;28;20043;-76
2022/12/28 00:43:10;;;;;;;8.00;3.97;;;;;;;-2.39;100.00;96321.66;4942675;28;20055;-76
2022/12/28 00:45:35;;;;;;;9.52;4.05;;;;;;;-2.37;100.00;96322.31;4951356;28;20074;-75
2022/12/28 00:48:01;;;;;;;9.82;4.28;;;;;;;-2.41;100.00;96310.72;4948640;28;20098;-76
2022/12/28 00:50:26;;;;;;;10.18;3.97;;;;;;;-2.39;100.00;96319.09;4951170;28;20039;-76
2022/12/28 00:52:52;;;;;;;7.10;3.53;;;;;;;-2.40;100.00;96311.53;4954943;28;20573;-76
2022/12/28 00:55:17;;;;;;;6.22;3.42;;;;;;;-2.35;100.00;96315.22;4954831;28;20046;-76
2022/12/28 00:57:43;;;;;;;7.95;3.70;;;;;;;-2.38;100.00;96315.56;4950373;28;20126;-76
2022/12/28 01:00:09;;;;;;;9.60;3.35;;;;;;;-2.65;100.00;96315.00;4949879;29;20046;-76
2022/12/28 01:02:35;;;;;;;7.40;3.65;;;;;;;-2.72;100.00;96314.06;4954975;28;20047;-76
2022/12/28 01:05:01;;;;;;;13.80;3.60;;;;;;;-2.58;100.00;96314.34;4952616;28;20042;-76
2022/12/28 01:07:26;;;;;;;9.45;3.33;;;;;;;-2.59;100.00;96312.72;4955982;28;20123;-76
2022/12/28 01:09:52;;;;;;;8.35;3.33;;;;;;;-2.57;100.00;96310.78;4953427;28;20057;-76
2022/12/28 01:12:17;;;;;;;5.88;2.92;;;;;;;-2.52;100.00;96313.69;4954994;28;20039;-76
2022/12/28 01:14:43;;;;;;;6.00;3.00;;;;;;;-2.53;100.00;96306.91;4953357;28;20118;-75
2022/12/28 01:17:08;;;;;;;7.13;3.30;;;;;;;-2.53;100.00;96294.03;4946748;28;20079;-76
2022/12/28 01:19:35;;;;;;;5.78;2.88;;;;;;;-2.55;100.00;96298.56;4947487;28;20047;-76
2022/12/28 01:22:00;;;;;;;7.53;3.03;;;;;;;-2.61;100.00;96295.66;4966403;28;20057;-76
2022/12/28 01:24:26;;;;;;;7.15;2.72;;;;;;;-2.64;100.00;96301.16;4961105;28;20040;-76
2022/12/28 01:26:52;;;;;;;7.10;3.00;;;;;;;-2.68;100.00;96307.59;4953951;28;20063;-76
2022/12/28 01:29:17;;;;;;;5.40;3.10;;;;;;;-2.65;100.00;96309.84;4952171;29;20070;-76
2022/12/28 01:31:43;;;;;;;6.88;2.70;;;;;;;-2.68;100.00;96311.97;4954273;28;20098;-76
2022/12/28 01:34:08;;;;;;;4.85;2.72;;;;;;;-2.66;100.00;96323.72;4952977;28;20094;-76
2022/12/28 01:36:34;;;;;;;6.43;3.05;;;;;;;-2.71;100.00;96315.66;4952620;28;20040;-76
2022/12/28 01:39:02;;;;;;;5.65;2.63;;;;;;;-2.82;100.00;96313.44;4953078;28;20065;-76
2022/12/28 01:41:29;;;;;;;4.97;2.90;;;;;;;-2.72;100.00;96319.22;4954344;28;20520;-75
2022/12/28 01:43:55;;;;;;;6.75;2.85;;;;;;;-2.80;100.00;96317.47;4951610;28;20731;-75
2022/12/28 01:46:28;;;;;;;8.25;2.90;;;;;;;-2.71;100.00;96315.66;4951003;28;20050;-76
2022/12/28 01:49:20;;;;;;;5.55;3.08;;;;;;;-2.62;100.00;96308.72;4937354;28;20040;-75
2022/12/28 01:51:52;;;;;;;7.18;2.90;;;;;;;-2.59;100.00;96297.28;4953642;29;20043;-76
2022/12/28 01:54:20;;;;;;;6.78;2.72;;;;;;;-2.60;100.00;96299.06;4952812;28;20058;-75
2022/12/28 01:56:47;;;;;;;6.93;2.95;;;;;;;-2.61;100.00;96290.50;4949084;28;20757;-76
2022/12/28 01:59:14;;;;;;;3.72;2.30;;;;;;;-2.74;100.00;96290.25;4952708;28;20047;-76
2022/12/28 02:01:40;;;;;;;4.53;2.30;;;;;;;-2.70;100.00;96285.53;4953086;28;20560;-76
2022/12/28 02:04:05;;;;;;;5.13;2.38;;;;;;;-2.61;100.00;96274.25;4952734;28;20044;-75
2022/12/28 02:06:31;;;;;;;7.28;2.60;;;;;;;-2.59;100.00;96274.06;4946217;28;20561;-75
2022/12/28 02:09:06;;;;;;;4.53;2.28;;;;;;;-2.57;100.00;96269.53;4951310;29;20043;-76
2022/12/28 02:11:31;;;;;;;;;;;;;;;-2.61;100.00;96262.16;4954214;28;20050;-75
2022/12/28 02:13:58;;;;;;;5.25;2.28;;;;;;;-2.67;100.00;96260.25;4952619;28;20296;-75
2022/12/28 02:16:24;;;;;;;3.80;2.05;;;;;;;-2.75;100.00;96257.72;4952019;29;20061;-75
2022/12/28 02:18:51;;;;;;;3.22;1.92;;;;;;;-2.71;100.00;96248.69;4952216;28;20039;-75
2022/12/28 02:22:04;;;;;;;6.13;2.03;;;;;;;-2.71;100.00;96248.69;4954809;28;20465;-75
2022/12/28 02:25:13;;;;;;;4.05;1.90;;;;;;;-2.70;100.00;96245.13;4915279;29;20051;-75
2022/12/28 02:28:15;;;;;;;2.88;1.70;;;;;;;-2.69;100.00;96241.56;4948592;28;20054;-76
2022/12/28 02:30:58;;;;;;;3.35;1.90;;;;;;;-2.70;100.00;96234.84;4945317;29;20047;-75
2022/12/28 02:33:36;;;;;;;3.88;2.17;;;;;;;-2.71;100.00;96233.22;4953365;28;20055;-75
2022/12/28 02:36:11;;;;;;;4.80;2.20;;;;;;;-2.67;100.00;96229.34;4948747;28;20094;-75
2022/12/28 02:38:49;;;;;;;4.50;2.10;;;;;;;-2.70;100.00;96221.94;4947279;28;20648;-75
2022/12/28 02:41:19;;;;;;;2.92;1.98;;;;;;;-2.69;100.00;96225.31;4951959;28;20049;-75
2022/12/28 02:43:45;;;;;;;3.05;2.00;;;;;;;-2.68;100.00;96227.72;4953245;28;20359;-75
2022/12/28 02:52:07;;;;;;;2.90;1.60;;;;;;;-2.52;100.00;96220.91;4949859;28;20043;-76
2022/12/28 02:58:06;;;;;;;3.88;1.90;;;;;;;-2.51;100.00;96217.34;4945479;28;20043;-75
2022/12/28 03:00:44;;;;;;;4.95;2.10;;;;;;;-2.50;100.00;96216.34;4951582;28;20094;-75
2022/12/28 03:03:32;;;;;;;2.67;1.55;;;;;;;-2.46;100.00;96210.72;4952926;28;20059;-75
2022/12/28 03:09:01;;;;;;;3.22;2.00;;;;;;;-2.44;100.00;96197.66;4945628;29;20043;-75
2022/12/28 03:11:37;;;;;;;3.83;1.80;;;;;;;-2.35;100.00;96196.63;4951113;28;20046;-76
2022/12/28 03:14:12;;;;;;;3.03;1.52;;;;;;;-2.45;100.00;96185.72;4951794;28;20698;-76
2022/12/28 03:33:23;;;;;;;4.97;2.15;;;;;;;-2.39;100.00;96159.25;4952222;29;20039;-75
2022/12/28 03:36:09;;;;;;;3.67;1.90;;;;;;;-2.41;100.00;96160.41;4952156;28;20039;-75
2022/12/28 03:39:00;;;;;;;4.07;1.85;;;;;;;-2.38;100.00;96150.56;4957150;28;20050;-75
2022/12/28 03:41:30;;;;;;;2.75;1.73;;;;;;;-2.27;100.00;96137.28;4954414;28;20047;-75
2022/12/28 03:44:10;;;;;;;2.38;1.60;;;;;;;-1.76;100.00;96130.72;4952066;28;20050;-75
2022/12/28 03:46:44;;;;;;;2.47;1.50;;;;;;;-1.32;100.00;96119.59;4943745;28;20043;-75
2022/12/28 03:49:10;;;;;;;1.50;1.10;;;;;;;-1.15;100.00;96124.56;4950937;28;20043;-75
2022/12/28 03:51:37;;;;;;;2.08;1.30;;;;;;;-1.01;100.00;96126.31;4960645;28;20043;-76
2022/12/28 03:54:02;;;;;;;3.25;1.83;;;;;;;-0.89;100.00;96113.72;4951902;28;20494;-75
2022/12/28 03:56:28;;;;;;;4.18;1.55;;;;;;;-0.85;100.00;96114.19;4946452;28;20091;-76
2022/12/28 03:58:55;;;;;;;2.47;1.30;;;;;;;-0.79;100.00;96118.63;4951986;28;20039;-76
2022/12/28 04:01:20;;;;;;;2.45;1.30;;;;;;;-0.69;100.00;96119.13;4950689;28;20050;-75
2022/12/28 04:03:46;;;;;;;2.30;1.50;;;;;;;-0.57;100.00;96120.25;4951876;28;20043;-76
2022/12/28 04:06:17;;;;;;;2.50;1.55;;;;;;;-0.54;100.00;96112.13;4953389;28;20042;-75
2022/12/28 04:08:44;;;;;;;2.33;1.67;;;;;;;-0.61;100.00;96116.44;4951786;28;20044;-75
2022/12/28 04:11:10;;;;;;;3.22;1.50;;;;;;;-0.58;100.00;96120.44;4949282;29;20494;-75
2022/12/28 04:13:36;;;;;;;2.63;1.70;;;;;;;-0.58;100.00;96115.25;4950715;28;20044;-75
2022/12/28 04:16:08;;;;;;;4.38;1.80;;;;;;;-0.55;100.00;96115.72;4932411;29;20521;-75
2022/12/28 04:18:34;;;;;;;3.17;1.48;;;;;;;-0.50;100.00;96111.75;4951229;28;20171;-76
2022/12/28 04:21:00;;;;;;;4.35;1.42;;;;;;;-0.49;100.00;96113.34;4951104;29;20044;-75
2022/12/28 04:23:26;;;;;;;2.67;1.60;;;;;;;-0.52;100.00;96106.75;4951171;28;20516;-75
2022/12/28 04:26:12;;;;;;;2.92;1.73;;;;;;;-0.50;100.00;96101.41;4953434;28;20043;-75
2022/12/28 04:28:39;;;;;;;3.20;1.45;;;;;;;-0.49;100.00;96097.84;4954194;29;20413;-75
2022/12/28 04:31:06;;;;;;;3.83;1.90;;;;;;;-0.45;100.00;96101.66;4955778;28;20064;-75
2022/12/28 04:33:33;;;;;;;6.03;2.00;;;;;;;-0.30;100.00;96102.41;4956731;28;20054;-75
2022/12/28 04:36:07;;;;;;;3.33;1.75;;;;;;;-0.36;100.00;96097.94;4948638;29;20053;-76
2022/12/28 04:38:34;;;;;;;3.25;1.48;;;;;;;-0.34;100.00;96101.16;4954677;29;20564;-76
2022/12/28 04:41:00;;;;;;;3.28;1.80;;;;;;;-0.36;100.00;96098.78;4954330;28;20548;-75
2022/12/28 04:43:25;;;;;;;5.85;1.75;;;;;;;-0.29;100.00;96103.97;4950766;28;20043;-76
2022/12/28 04:45:59;;;;;;;3.97;1.70;;;;;;;-0.38;100.00;96100.72;4955174;28;20043;-75
2022/12/28 04:48:25;;;;;;;5.00;2.00;;;;;;;-0.36;100.00;96087.59;4949931;28;20040;-76
2022/12/28 04:50:52;;;;;;;4.03;2.03;;;;;;;-0.30;100.00;96097.22;4955404;28;20497;-76
2022/12/28 04:53:18;;;;;;;3.08;1.65;;;;;;;-0.23;100.00;96095.50;4953807;28;20043;-76
2022/12/28 04:55:43;;;;;;;4.03;1.95;;;;;;;-0.27;100.00;96101.25;4955085;28;20126;-76
2022/12/28 04:58:09;;;;;;;5.53;2.03;;;;;;;-0.34;100.00;96096.00;4952535;28;20054;-75
2022/12/28 05:00:35;;;;;;;3.42;1.90;;;;;;;-0.41;100.00;96082.22;4955110;28;20425;-76
2022/12/28 05:03:00;;;;;;;4.22;2.00;;;;;;;-0.57;100.00;96094.41;4953803;28;20039;-75
2022/12/28 05:05:27;;;;;;;3.80;2.00;;;;;;;-0.38;100.00;96092.19;4953650;28;20062;-76
2022/12/28 05:07:54;;;;;;;6.38;2.35;;;;;;;-0.33;100.00;96086.44;4953600;28;20039;-76
2022/12/28 05:10:20;;;;;;;3.17;1.90;;;;;;;-0.20;100.00;96092.53;4954873;28;20074;-75
2022/12/28 05:12:45;;;;;;;5.72;1.90;;;;;;;-0.22;100.00;96078.97;4953405;28;20047;-75
2022/12/28 05:15:11;;;;;;;7.15;2.20;;;;;;;-0.16;100.00;96092.16;4948387;28;20055;-76
2022/12/28 05:17:37;;;;;;;3.28;2.00;;;;;;;-0.15;100.00;96093.75;4951002;28;20040;-75
2022/12/28 05:20:03;;;;;;;5.05;2.33;;;;;;;-0.17;100.00;96101.72;4950285;28;20062;-76
2022/12/28 05:22:29;;;;;;;4.40;1.80;;;;;;;-0.15;100.00;96086.00;4953235;28;20054;-75
2022/12/28 05:24:55;;;;;;;3.03;1.75;;;;;;;-0.24;100.00;96086.13;4954365;28;20410;-76
2022/12/28 05:27:21;;;;;;;5.03;2.10;;;;;;;-0.34;100.00;96080.47;4951853;28;20047;-76
2022/12/28 05:29:46;;;;;;;4.90;2.10;;;;;;;-0.46;100.00;96076.78;4954124;29;20114;-76
2022/12/28 05:32:12;;;;;;;4.43;2.15;;;;;;;-0.40;100.00;96070.88;4952116;28;20054;-76
2022/12/28 05:34:37;;;;;;;4.70;2.28;;;;;;;-0.37;100.00;96070.50;4954382;28;20039;-75
2022/12/28 05:37:03;;;;;;;5.03;2.40;;;;;;;-0.29;100.00;96078.13;4950259;28;20122;-76
2022/12/28 05:39:29;;;;;;;4.60;2.33;;;;;;;-0.30;100.00;96066.19;4954448;28;20054;-76
2022/12/28 05:41:58;;;;;;;4.78;2.38;;;;;;;-0.37;100.00;96060.16;4952680;28;20058;-77
2022/12/28 05:44:28;;;;;;;5.55;2.00;;;;;;;-0.43;100.00;96060.88;4951648;28;20082;-76
2022/12/28 05:46:54;;;;;;;4.97;2.28;;;;;;;-0.44;100.00;96064.47;4946448;29;20047;-76
2022/12/28 05:49:19;;;;;;;7.43;2.30;;;;;;;-0.45;100.00;96073.22;4942452;28;20044;-76
2022/12/28 05:51:47;;;;;;;5.78;1.90;;;;;;;-0.32;100.00;96073.31;4944655;29;20043;-75
2022/12/28 05:54:13;;;;;;;6.15;1.90;;;;;;;-0.22;100.00;96073.78;4954192;28;20055;-76
2022/12/28 05:56:39;;;;;;;4.55;2.30;;;;;;;-0.22;100.00;96068.63;4948663;28;20135;-76
2022/12/28 05:59:06;;;;;;;4.63;2.08;;;;;;;-0.21;100.00;96079.78;4953976;28;20049;-76
2022/12/28 06:01:35;;;;;;;5.57;2.63;;;;;;;-0.11;100.00;96069.13;4954185;28;20049;-75
2022/12/28 06:04:04;;;;;;;7.75;2.28;;;;;;;-0.23;100.00;96074.81;4952263;28;20043;-76
2022/12/28 06:06:31;;;;;;;5.40;2.17;;;;;;;-0.22;100.00;96073.78;4944116;29;20058;-75
2022/12/28 06:08:56;;;;;;;3.35;2.08;;;;;;;-0.14;100.00;96064.31;4953916;28;20070;-76
2022/12/28 06:11:24;;;;;;;4.68;1.95;;;;;;;-0.05;100.00;96063.19;4952422;28;20043;-76
2022/12/28 06:13:50;;;;;;;3.65;1.85;;;;;;;0.02;100.00;96069.22;4942745;28;20051;-76
2022/12/28 06:16:21;;;;;;;3.95;2.10;;;;;;;0.08;100.00;96073.63;4952253;28;20043;-76
2022/12/28 06:18:48;;;;;;;3.80;1.90;;;;;;;0.07;100.00;96072.03;4949340;28;20046;-75
2022/12/28 06:21:22;;;;;;;4.78;2.20;;;;;;;0.13;100.00;96073.88;4952775;28;20043;-76
2022/12/28 06:23:49;;;;;;;5.63;1.90;;;;;;;0.21;100.00;96072.13;4953479;28;20039;-76
2022/12/28 06:26:18;;;;;;;3.33;1.88;;;;;;;0.19;100.00;96084.44;4948506;28;20071;-76
2022/12/28 06:28:44;;;;;;;4.35;2.00;;;;;;;0.13;100.00;96081.63;4953285;28;20044;-76
2022/12/28 06:31:11;;;;;;;6.55;2.33;;;;;;;0.16;100.00;96078.66;4953470;28;20390;-76
2022/12/28 06:33:37;;;;;;;3.20;1.88;;;;;;;0.17;100.00;96082.84;4952332;28;20039;-76
2022/12/28 06:36:04;;;;;;;4.90;1.90;;;;;;;0.11;100.00;96083.59;4951662;28;20417;-75
2022/12/28 06:38:33;;;;;;;4.40;2.00;;;;;;;0.16;100.00;96091.59;4953498;28;20054;-75
2022/12/28 06:41:06;;;;;;;6.30;2.30;;;;;;;0.14;100.00;96091.00;4951965;28;20043;-75
2022/12/28 06:43:34;;;;;;;4.07;1.97;;;;;;;0.21;100.00;96093.63;4949345;28;20046;-75
2022/12/28 06:46:01;;;;;;;6.65;2.13;;;;;;;0.22;100.00;96089.25;4951805;28;20043;-76
2022/12/28 06:48:28;;;;;;;3.78;2.00;;;;;;;0.17;100.00;96088.03;4948396;28;20040;-75
2022/12/28 06:50:56;;;;;;;4.20;2.00;;;;;;;0.16;100.00;96086.44;4962156;29;20053;-77
2022/12/28 06:53:24;;;;;;;4.63;2.22;;;;;;;0.04;100.00;96077.56;4978271;28;20043;-77
2022/12/28 06:55:57;;;;;;;4.32;2.00;;;;;;;0.05;100.00;96076.59;4988031;28;20026;-76
2022/12/28 06:58:24;;;;;;;3.43;1.93;;;;;;;0.11;100.00;96078.41;4978945;28;20111;-76
2022/12/28 07:00:50;;;;;;;5.78;2.10;;;;;;;0.14;100.00;96078.06;4979590;28;20292;-76
2022/12/28 07:03:16;;;;;;;3.05;1.75;;;;;;;0.17;100.00;96075.09;4978056;28;20071;-77
2022/12/28 07:05:42;;;;;;;4.68;2.20;;;;;;;0.26;100.00;96074.91;4976113;28;20031;-76
2022/12/28 07:08:08;;;;;;;5.05;2.03;;;;;;;0.26;100.00;96077.50;4977994;28;20049;-76
2022/12/28 07:10:34;;;;;;;5.15;2.03;;;;;;;0.32;100.00;96079.34;4980181;28;20038;-77
2022/12/28 07:12:59;;;;;;;4.55;2.28;;;;;;;0.27;100.00;96066.16;4957782;29;20118;-75
2022/12/28 07:15:25;;;;;;;4.63;2.05;;;;;;;0.25;100.00;96079.31;4945592;28;20134;-76
2022/12/28 07:17:51;;;;;;;4.25;1.90;;;;;;;0.28;100.00;96083.31;4948392;29;20039;-75
2022/12/28 07:20:16;;;;;;;5.30;1.60;;;;;;;0.32;100.00;96084.53;4948422;28;20062;-75
2022/12/28 07:22:42;;;;;;;3.72;2.00;;;;;;;0.29;100.00;96079.75;4956448;28;20074;-75
2022/12/28 07:25:08;;;;;;;2.95;1.80;;;;;;;0.22;100.00;96063.38;4952271;28;20493;-76
2022/12/28 07:27:34;;;;;;;4.32;1.92;;;;;;;0.31;100.00;96077.75;4950335;28;20047;-76
2022/12/28 07:30:00;;;;;;;11.48;2.45;;;;;;;0.37;100.00;96081.38;4952537;28;20039;-75
2022/12/28 07:32:26;;;;;;;3.97;2.00;;;;;;;0.37;100.00;96083.97;4950653;28;20050;-75
2022/12/28 07:34:52;;;;;;;7.68;1.80;;;;;;;0.33;100.00;96068.00;4952236;28;20039;-76
2022/12/28 07:37:17;;;;;;;3.58;1.83;;;;;;;0.38;100.00;96072.63;4953185;28;20043;-75
2022/12/28 07:39:43;;;;;;;4.07;1.85;;;;;;;0.50;100.00;96082.25;4951619;28;20047;-76
2022/12/28 07:42:10;;;;;;;2.95;1.92;;;;;;;0.46;100.00;96081.03;4950942;28;20050;-76
2022/12/28 07:44:37;;;;;;;4.43;1.80;;;;;;;0.43;100.00;96071.06;4952293;28;20043;-75
2022/12/28 07:47:02;;;;;;;4.05;1.77;;;;;;;0.65;100.00;96078.75;4940678;28;20094;-76
2022/12/28 07:49:28;;;;;;;4.78;1.80;;;;;;;0.61;100.00;96087.88;4947712;28;20043;-76
2022/12/28 07:51:54;;;;;;;4.75;1.88;;;;;;;0.71;100.00;96088.31;4950833;28;20106;-75
2022/12/28 07:54:19;;;;;;;3.83;1.80;;;;;;;0.75;100.00;96089.53;4951984;28;20179;-75
2022/12/28 07:56:45;;;;;;;5.10;1.50;;;;;;;0.79;100.00;96088.16;4950116;28;20457;-76
2022/12/28 07:59:13;;;;;;;6.25;1.80;;;;;;;0.78;100.00;96083.97;4945328;28;20039;-76
2022/12/28 08:01:38;;;;;;;2.67;1.50;;;;;;;0.81;100.00;96083.56;4951034;28;20082;-75
2022/12/28 08:04:08;;;;;;;3.17;1.50;;;;;;;0.84;100.00;96082.41;4952050;28;20047;-76
2022/12/28 08:06:37;;;;;;;4.15;1.50;;;;;;;0.81;100.00;96073.22;4947531;28;20541;-76
2022/12/28 08:09:04;;;;;;;3.45;1.85;;;;;;;0.88;100.00;96062.06;4950432;28;20047;-75
2022/12/28 08:11:32;;;;;;;2.60;1.40;;;;;;;1.04;100.00;96077.28;4951412;28;20059;-75
2022/12/28 08:13:59;;;;;;;2.45;1.40;;;;;;;1.06;100.00;96074.50;4949764;29;20047;-75
2022/12/28 08:16:27;;;;;;;3.20;1.70;;;;;;;1.08;100.00;96070.72;4943345;28;20087;-76
2022/12/28 08:18:53;;;;;;;2.15;1.42;;;;;;;1.25;100.00;96062.56;4946073;28;20039;-75
2022/12/28 08:21:22;;;;;;;2.25;1.15;;;;;;;1.40;100.00;96055.41;4952521;28;20489;-75
2022/12/28 08:23:48;;;;;;;1.30;1.00;;;;;;;1.47;100.00;96051.03;4954463;28;20524;-75
2022/12/28 08:26:19;;;;;;;2.45;1.38;;;;;;;1.58;100.00;96067.81;4956293;28;20039;-75
2022/12/28 08:28:46;;;;;;;1.67;1.10;;;;;;;1.69;100.00;96059.41;4945686;28;20047;-75
2022/12/28 08:31:18;;;;;;;1.88;1.13;;;;;;;1.70;100.00;96075.81;4951784;28;20047;-75
2022/12/28 08:33:44;;;;;;;1.42;1.10;;;;;;;1.81;100.00;96072.63;4952636;28;20051;-75
2022/12/28 08:36:10;;;;;;;2.05;1.20;;;;;;;1.86;100.00;96075.41;4956566;28;20039;-75
2022/12/28 08:38:37;;;;;;;1.55;1.13;;;;;;;1.99;100.00;96063.44;4944523;28;20047;-75
2022/12/28 08:41:06;;;;;;;2.55;1.50;;;;;;;2.07;100.00;96076.22;4951679;28;20498;-75
2022/12/28 08:43:33;;;;;;;2.75;1.27;;;;;;;2.10;100.00;96065.41;4950268;28;20043;-75
2022/12/28 08:46:11;;;;;;;1.13;1.02;;;;;;;2.12;100.00;96067.81;4951279;28;20082;-75
2022/12/28 08:48:37;;;;;;;1.55;1.10;;;;;;;2.16;100.00;96074.19;4945479;28;20498;-75
2022/12/28 08:51:06;;;;;;;2.30;1.23;;;;;;;2.20;100.00;96071.00;4951627;28;20031;-75
2022/12/28 08:53:32;;;;;;;3.78;1.40;;;;;;;2.29;100.00;96060.41;4949733;28;20047;-75
2022/12/28 08:56:10;;;;;;;2.55;1.30;;;;;;;2.31;100.00;96061.75;4949699;28;20050;-75
2022/12/28 08:58:37;;;;;;;2.25;1.30;;;;;;;2.37;100.00;96054.97;4941677;29;20494;-75
2022/12/28 09:01:13;;;;;;;1.75;1.00;;;;;;;2.50;100.00;96047.16;4951563;28;20049;-76
2022/12/28 09:03:42;;;;;;;3.38;1.30;;;;;;;2.49;100.00;96037.75;4950233;28;20055;-75
2022/12/28 09:06:10;;;;;;;1.58;1.00;;;;;;;2.66;100.00;96047.69;4945664;28;20047;-76
2022/12/28 09:08:36;;;;;;;1.52;1.13;;;;;;;2.68;100.00;96045.69;4938728;29;20032;-76
2022/12/28 09:11:04;;;;;;;1.60;0.93;;;;;;;2.85;100.00;96044.22;4952559;28;20462;-76
2022/12/28 09:13:31;;;;;;;3.13;1.40;;;;;;;2.85;100.00;96041.63;4953484;28;20486;-75
2022/12/28 09:16:02;;;;;;;1.75;1.00;;;;;;;3.02;100.00;96046.34;4952161;28;20062;-76
2022/12/28 09:18:28;;;;;;;1.55;1.17;;;;;;;3.01;100.00;96040.34;4953053;28;20474;-76
2022/12/28 09:20:54;;;;;;;4.10;1.10;;;;;;;3.10;100.00;96033.09;4953537;29;20042;-76
2022/12/28 09:23:19;;;;;;;2.90;1.20;;;;;;;3.21;100.00;96034.22;4953500;28;20134;-76
2022/12/28 09:25:46;;;;;;;1.92;1.20;;;;;;;3.34;100.00;96033.34;4954184;28;20390;-76
2022/12/28 09:28:12;;;;;;;3.60;1.10;;;;;;;3.51;100.00;96034.44;4942707;28;20043;-76
2022/12/28 09:30:37;;;;;;;2.05;1.08;;;;;;;3.56;100.00;96032.00;4954521;28;20516;-76
2022/12/28 09:35:47;;;;;;;1.67;1.17;;;;;;;3.93;100.00;96019.06;4954435;28;20035;-76
2022/12/28 09:38:13;;;;;;;1.50;1.05;;;;;;;4.04;100.00;96022.78;4941125;28;20054;-76
2022/12/28 09:40:38;;;;;;;1.38;1.00;;;;;;;4.16;100.00;96025.47;4954417;28;20621;-76
2022/12/28 09:43:04;;;;;;;0.80;0.68;;;;;;;4.25;100.00;96024.19;4953330;28;20062;-75
2022/12/28 09:45:32;;;;;;;1.13;1.00;;;;;;;4.29;100.00;96014.91;4947967;28;20043;-75
2022/12/28 09:48:03;;;;;;;0.93;0.73;;;;;;;4.50;100.00;96010.28;4955231;28;20501;-75
2022/12/28 09:50:30;;;;;;;2.83;1.13;;;;;;;4.41;100.00;96006.38;4951231;28;20039;-75
2022/12/28 09:53:11;;;;;;;2.15;0.90;;;;;;;4.65;100.00;96002.88;4954231;28;20058;-76
2022/12/28 09:55:40;;;;;;;1.65;0.80;;;;;;;4.71;100.00;96005.63;4953724;29;20048;-76
2022/12/28 09:58:13;;;;;;;1.23;1.10;;;;;;;4.78;100.00;95991.47;4948978;28;20383;-76
2022/12/28 10:00:49;;;;;;;2.83;1.23;;;;;;;4.92;100.00;95991.34;4953244;29;20124;-76
2022/12/28 10:03:21;;;;;;;1.92;1.00;;;;;;;5.20;100.00;95988.13;4950779;28;20576;-76
2022/12/28 10:05:47;;;;;;;1.33;1.20;;;;;;;5.82;100.00;95984.34;4953355;29;20036;-77
2022/12/28 10:08:15;;;;;;;1.92;0.93;;;;;;;5.87;100.00;95981.84;4952383;28;20074;-76
2022/12/28 10:10:42;;;;;;;2.10;1.10;;;;;;;6.03;100.00;95986.44;4951579;28;20043;-76
2022/12/28 10:13:22;;;;;;;1.83;1.00;;;;;;;5.97;100.00;95982.09;4953934;28;20039;-76
2022/12/28 10:15:48;;;;;;;2.03;1.10;;;;;;;5.94;100.00;95966.84;4950146;28;20098;-76
2022/12/28 10:18:23;;;;;;;2.05;1.00;;;;;;;6.18;100.00;95966.88;4949127;28;20048;-77
2022/12/28 10:20:49;;;;;;;3.00;0.80;;;;;;;5.90;100.00;95960.50;4951165;29;20047;-76
2022/12/28 10:23:28;;;;;;;2.65;0.98;;;;;;;5.79;100.00;95963.91;4952033;28;20046;-76
2022/12/28 10:25:56;;;;;;;2.65;1.30;;;;;;;5.57;100.00;95951.41;4950908;29;20072;-77
2022/12/28 10:28:30;;;;;;;2.15;1.20;;;;;;;5.79;100.00;95937.78;4938568;28;20502;-76
2022/12/28 10:31:05;;;;;;;2.83;1.10;;;;;;;5.78;100.00;95949.28;4951071;28;20043;-76
2022/12/28 10:33:31;;;;;;;1.95;1.10;;;;;;;5.90;100.00;95939.59;4954639;28;20054;-76
2022/12/28 10:35:58;;;;;;;1.38;1.08;;;;;;;5.81;100.00;95928.72;4948515;28;20035;-77
2022/12/28 10:38:30;;;;;;;2.17;1.25;;;;;;;5.75;100.00;95924.41;4950272;29;20059;-77
2022/12/28 10:41:05;;;;;;;2.67;1.15;;;;;;;5.76;100.00;95933.03;4952135;28;20102;-76
2022/12/28 10:43:35;;;;;;;2.17;1.23;;;;;;;5.82;100.00;95937.31;4953374;28;20425;-76
2022/12/28 10:46:02;;;;;;;1.70;0.90;;;;;;;5.81;100.00;95920.88;4950126;28;20102;-77
2022/12/28 10:48:35;;;;;;;1.27;0.90;;;;;;;6.03;100.00;95913.28;4955786;28;20039;-76
2022/12/28 10:51:16;;;;;;;3.17;1.00;;;;;;;6.34;100.00;95916.50;4948296;29;20114;-76
2022/12/28 10:53:46;;;;;;;2.47;1.25;;;;;;;6.38;100.00;95907.16;4952926;28;20039;-76
2022/12/28 10:56:11;;;;;;;3.03;1.02;;;;;;;6.56;100.00;95908.00;4950698;28;20566;-76
2022/12/28 10:58:38;;;;;;;2.47;1.25;;;;;;;6.87;100.00;95895.47;4951925;29;20043;-76
2022/12/28 11:01:12;;;;;;;1.70;0.98;;;;;;;6.90;100.00;95901.03;4951697;28;20169;-76
2022/12/28 11:03:42;;;;;;;1.70;0.90;;;;;;;6.52;100.00;95899.03;4957554;28;20047;-76
2022/12/28 11:06:17;;;;;;;2.03;1.10;;;;;;;6.53;100.00;95895.41;4951000;29;20130;-76
2022/12/28 11:08:44;;;;;;;;;;;;;;;6.79;100.00;95898.47;4953447;28;20046;-76
2022/12/28 11:11:18;;;;;;;1.33;1.10;;;;;;;7.10;100.00;95884.88;4951110;28;19934;-76
2022/12/28 11:13:45;;;;;;;;;;;;;;;7.68;95.44;95884.66;4951341;28;20399;-76
2022/12/28 11:16:13;;;;;;;1.70;1.05;;;;;;;8.46;89.05;95884.59;4954580;28;19926;-76
2022/12/28 11:18:40;;;;;;;1.27;0.93;;;;;;;8.99;80.46;95881.41;4948965;28;20043;-76
2022/12/28 11:21:10;;;;;;;2.00;1.00;;;;;;;8.97;77.80;95867.75;4951290;28;20054;-76
2022/12/28 11:23:37;;;;;;;1.88;1.30;;;;;;;8.46;82.34;95874.09;4952584;28;20051;-76
2022/12/28 11:26:03;;;;;;;1.65;0.98;;;;;;;8.89;85.02;95868.97;4950756;28;20118;-76
2022/12/28 11:28:28;;;;;;;1.52;0.98;;;;;;;8.73;83.15;95862.81;4946020;28;20173;-76
2022/12/28 11:30:55;;;;;;;2.95;1.10;;;;;;;9.03;78.84;95866.75;4954006;28;20043;-76
2022/12/28 11:33:41;;;;;;;2.42;1.50;;;;;;;8.92;76.03;95859.81;4955403;28;20035;-76
2022/12/28 11:36:15;;;;;;;3.55;1.20;;;;;;;8.89;76.28;95861.09;4941927;28;20051;-76
2022/12/28 11:38:42;;;;;;;2.35;1.10;;;;;;;8.79;80.83;95861.84;4952511;28;20102;-76
2022/12/28 11:41:32;;;;;;;1.63;1.15;;;;;;;8.42;83.72;95857.25;4950665;28;20043;-76
2022/12/28 11:44:05;;;;;;;4.53;1.30;;;;;;;8.36;82.33;95858.25;4934217;28;20055;-75
2022/12/28 11:46:30;;;;;;;2.35;1.20;;;;;;;8.52;79.58;95855.78;4947693;28;20110;-76
2022/12/28 11:49:00;;;;;;;2.20;1.38;;;;;;;8.15;82.04;95858.00;4943674;28;20490;-76
2022/12/28 11:51:28;;;;;;;4.82;1.33;;;;;;;8.76;84.14;95851.03;4942412;29;20051;-75
2022/12/28 11:53:59;;;;;;;4.40;1.55;;;;;;;7.64;87.31;95852.13;4941616;28;20517;-76
2022/12/28 11:56:26;;;;;;;3.63;1.58;;;;;;;8.15;82.45;95841.47;4941691;29;20490;-76
2022/12/28 11:58:58;;;;;;;3.05;1.48;;;;;;;8.22;81.82;95851.78;4940911;28;20052;-76
2022/12/28 12:01:27;;;;;;;5.72;1.60;;;;;;;8.48;81.72;95832.66;4941573;28;20339;-76
2022/12/28 12:03:55;;;;;;;3.60;1.50;;;;;;;8.71;77.98;95833.41;4951875;28;20428;-76
2022/12/28 12:06:40;;;;;;;3.03;1.40;;;;;;;9.29;72.60;95828.31;4950671;28;20267;-76
2022/12/28 12:09:26;;;;;;;2.38;1.40;;;;;;;8.96;75.97;95814.44;4946334;28;20054;-76
2022/12/28 12:12:02;;;;;;;4.03;1.50;;;;;;;9.12;74.90;95812.75;4950689;28;20090;-76